createdAt,value
2022-09-17T00:01:33.220Z,70.80
2022-09-17T00:04:04.749Z,70.99
2022-09-17T00:06:35.040Z,72.34
2022-09-17T00:09:04.297Z,72.55
2022-09-17T00:11:36.560Z,72.92
2022-09-17T00:14:07.144Z,72.48
2022-09-17T00:16:40.330Z,71.80
2022-09-17T00:19:15.492Z,72.02
2022-09-17T00:21:44.640Z,71.02
2022-09-17T00:24:13.872Z,70.66
2022-09-17T00:26:42.083Z,72.24
2022-09-17T00:29:12.762Z,72.50
2022-09-17T00:31:40.841Z,72.71
2022-09-17T00:34:09.333Z,71.98
2022-09-17T00:36:39.091Z,73.00
2022-09-17T00:39:09.537Z,72.70
2022-09-17T00:41:38.731Z,72.15
2022-09-17T00:44:48.230Z,72.45
2022-09-17T00:47:35.921Z,72.37
2022-09-17T00:50:14.911Z,71.26
2022-09-17T00:52:46.533Z,71.30
2022-09-17T00:55:24.637Z,72.25
2022-09-17T00:57:58.822Z,71.96
2022-09-17T01:00:28.348Z,71.68
2022-09-17T01:02:56.012Z,70.39
2022-09-17T01:05:49.786Z,71.71
2022-09-17T01:08:53.874Z,73.30
2022-09-17T01:11:30.189Z,74.51
2022-09-17T01:14:23.537Z,76.52
2022-09-17T01:17:09.998Z,76.68
2022-09-17T01:20:30.471Z,78.32
2022-09-17T01:23:21.961Z,78.37
2022-09-17T01:26:10.575Z,79.03
2022-09-17T01:28:54.634Z,79.51
2022-09-17T01:31:53.019Z,78.96
2022-09-17T01:34:59.691Z,79.20
2022-09-17T01:37:39.592Z,79.03
2022-09-17T01:40:32.467Z,77.83
2022-09-17T01:43:10.925Z,78.00
2022-09-17T01:45:43.805Z,78.61
2022-09-17T01:48:35.610Z,79.48
2022-09-17T01:51:14.860Z,79.22
2022-09-17T01:53:51.475Z,79.26
2022-09-17T01:56:25.568Z,78.67
2022-09-17T01:59:11.572Z,78.76
2022-09-17T02:01:43.685Z,80.31
2022-09-17T02:05:03.844Z,80.25
2022-09-17T02:07:37.199Z,80.31
2022-09-17T02:10:12.970Z,80.14
2022-09-17T02:12:52.543Z,80.52
2022-09-17T02:15:33.629Z,80.97
2022-09-17T02:18:26.038Z,81.21
2022-09-17T02:21:06.123Z,81.32
2022-09-17T02:24:01.650Z,81.09
2022-09-17T02:29:21.124Z,81.89
2022-09-17T02:31:48.817Z,81.17
2022-09-17T02:34:16.570Z,81.78
2022-09-17T02:36:44.085Z,81.74
2022-09-17T02:39:11.632Z,82.34
2022-09-17T02:41:58.615Z,83.56
2022-09-17T02:44:55.365Z,83.89
2022-09-17T02:47:59.895Z,84.20
2022-09-17T02:51:11.374Z,84.00
2022-09-17T02:54:05.985Z,82.51
2022-09-17T02:56:54.423Z,83.35
2022-09-17T02:59:42.585Z,83.98
2022-09-17T03:02:26.749Z,84.16
2022-09-17T03:04:55.710Z,83.46
2022-09-17T03:07:24.314Z,82.53
2022-09-17T03:09:51.944Z,82.64
2022-09-17T03:12:19.451Z,82.33
2022-09-17T03:14:46.997Z,81.68
2022-09-17T03:17:14.980Z,82.32
2022-09-17T03:19:42.670Z,81.98
2022-09-17T03:22:10.184Z,82.64
2022-09-17T03:24:37.629Z,82.64
2022-09-17T03:27:05.476Z,83.43
2022-09-17T03:29:32.937Z,83.57
2022-09-17T03:32:01.089Z,83.39
2022-09-17T03:34:28.540Z,84.03
2022-09-17T03:36:56.033Z,83.79
2022-09-17T03:39:23.488Z,84.86
2022-09-17T03:41:51.489Z,84.22
2022-09-17T03:44:19.531Z,84.40
2022-09-17T03:46:47.087Z,84.05
2022-09-17T03:49:14.722Z,84.08
2022-09-17T03:51:42.184Z,84.21
2022-09-17T03:54:09.721Z,84.89
2022-09-17T03:56:37.228Z,84.14
2022-09-17T03:59:04.818Z,84.33
2022-09-17T04:01:32.760Z,84.16
2022-09-17T04:04:00.574Z,84.33
2022-09-17T04:06:28.185Z,84.22
2022-09-17T04:08:56.943Z,84.73
2022-09-17T04:11:24.600Z,84.24
2022-09-17T04:13:53.215Z,83.70
2022-09-17T04:16:20.812Z,84.21
2022-09-17T04:18:48.310Z,83.94
2022-09-17T04:21:16.873Z,84.47
2022-09-17T04:23:44.362Z,85.13
2022-09-17T04:26:12.174Z,85.02
2022-09-17T04:28:39.692Z,84.43
2022-09-17T04:31:07.306Z,83.87
2022-09-17T04:33:34.867Z,84.64
2022-09-17T04:36:02.671Z,84.95
2022-09-17T04:38:30.551Z,86.17
2022-09-17T04:40:58.033Z,85.92
2022-09-17T04:43:25.718Z,85.29
2022-09-17T04:45:53.179Z,86.04
2022-09-17T04:48:20.634Z,85.83
2022-09-17T04:50:48.162Z,85.76
2022-09-17T04:53:15.628Z,85.96
2022-09-17T04:55:44.401Z,85.24
2022-09-17T04:58:14.997Z,85.11
2022-09-17T05:00:42.653Z,84.28
2022-09-17T05:03:10.368Z,83.82
2022-09-17T05:05:37.919Z,82.90
2022-09-17T05:08:05.810Z,82.01
2022-09-17T05:10:33.256Z,81.57
2022-09-17T05:13:01.085Z,81.75
2022-09-17T05:15:28.573Z,79.65
2022-09-17T05:17:56.023Z,78.80
2022-09-17T05:20:23.574Z,79.23
2022-09-17T05:22:52.895Z,79.23
2022-09-17T05:25:25.497Z,78.89
2022-09-17T05:27:54.655Z,79.40
2022-09-17T05:30:22.501Z,78.14
2022-09-17T05:32:56.031Z,78.44
2022-09-17T05:35:23.739Z,77.98
2022-09-17T05:37:51.194Z,77.48
2022-09-17T05:40:18.817Z,76.63
2022-09-17T05:42:46.284Z,76.32
2022-09-17T05:45:14.000Z,75.62
2022-09-17T05:47:41.429Z,74.40
2022-09-17T05:50:09.537Z,74.33
2022-09-17T05:52:37.010Z,73.76
2022-09-17T05:55:04.880Z,73.46
2022-09-17T05:57:32.351Z,71.02
2022-09-17T05:59:59.914Z,71.10
2022-09-17T06:02:27.432Z,71.13
2022-09-17T06:04:55.710Z,69.62
2022-09-17T06:07:23.744Z,71.58
2022-09-17T06:09:51.189Z,70.82
2022-09-17T06:12:18.652Z,69.75
2022-09-17T06:14:46.217Z,68.93
2022-09-17T06:17:13.678Z,71.08
2022-09-17T06:19:41.114Z,70.88
2022-09-17T06:22:08.555Z,69.97
2022-09-17T06:24:36.096Z,69.22
2022-09-17T06:27:03.770Z,68.36
2022-09-17T06:29:31.367Z,68.58
2022-09-17T06:31:58.834Z,71.46
2022-09-17T06:34:27.065Z,70.43
2022-09-17T06:36:54.530Z,70.46
2022-09-17T06:39:22.230Z,67.96
2022-09-17T06:41:49.746Z,67.35
2022-09-17T06:44:17.190Z,68.61
2022-09-17T06:46:44.853Z,68.70
2022-09-17T06:49:12.353Z,69.27
2022-09-17T06:51:39.825Z,69.83
2022-09-17T06:54:08.361Z,68.91
2022-09-17T06:56:35.965Z,69.14
2022-09-17T06:59:04.059Z,69.27
2022-09-17T07:01:31.582Z,69.64
2022-09-17T07:03:59.172Z,69.68
2022-09-17T07:06:26.783Z,68.22
2022-09-17T07:08:54.388Z,67.19
2022-09-17T07:11:21.964Z,66.75
2022-09-17T07:13:49.445Z,67.87
2022-09-17T07:16:17.050Z,67.15
2022-09-17T07:18:44.536Z,67.03
2022-09-17T07:21:12.884Z,66.41
2022-09-17T07:23:40.402Z,68.95
2022-09-17T07:26:13.540Z,71.10
2022-09-17T07:28:43.757Z,66.21
2022-09-17T07:31:16.362Z,64.28
2022-09-17T07:33:46.647Z,65.64
2022-09-17T07:36:18.410Z,64.58
2022-09-17T07:38:46.196Z,65.45
2022-09-17T07:41:16.730Z,63.99
2022-09-17T07:43:44.960Z,63.07
2022-09-17T07:46:20.613Z,60.81
2022-09-17T07:48:49.768Z,63.26
2022-09-17T07:51:23.479Z,62.46
2022-09-17T07:53:55.447Z,62.14
2022-09-17T07:56:23.908Z,62.45
2022-09-17T07:58:51.688Z,60.22
2022-09-17T08:01:23.370Z,59.21
2022-09-17T08:03:54.224Z,59.37
2022-09-17T08:06:28.163Z,58.76
2022-09-17T08:08:57.820Z,58.50
2022-09-17T08:11:54.638Z,55.33
2022-09-17T08:14:18.546Z,55.34
2022-09-17T08:16:48.237Z,55.51
2022-09-17T08:19:19.040Z,55.42
2022-09-17T08:21:47.039Z,54.27
2022-09-17T08:24:14.577Z,57.26
2022-09-17T08:26:42.213Z,57.75
2022-09-17T08:29:11.355Z,56.68
2022-09-17T08:31:41.169Z,54.60
2022-09-17T08:34:10.244Z,51.68
2022-09-17T08:36:38.101Z,52.83
2022-09-17T08:39:05.823Z,54.78
2022-09-17T08:41:51.850Z,52.76
2022-09-17T08:44:41.817Z,51.78
2022-09-17T08:47:36.562Z,51.21
2022-09-17T08:50:15.463Z,52.18
2022-09-17T08:53:10.562Z,51.15
2022-09-17T08:55:44.828Z,50.22
2022-09-17T08:58:30.924Z,50.94
2022-09-17T09:01:52.843Z,50.32
2022-09-17T09:04:50.356Z,53.06
2022-09-17T09:07:34.758Z,49.00
2022-09-17T09:10:33.723Z,47.84
2022-09-17T09:13:03.573Z,47.03
2022-09-17T09:15:59.619Z,46.50
2022-09-17T09:18:31.669Z,47.27
2022-09-17T09:21:30.601Z,48.71
2022-09-17T09:24:00.912Z,46.05
2022-09-17T09:26:45.024Z,44.71
2022-09-17T09:29:46.039Z,44.47
2022-09-17T09:32:58.675Z,44.57
2022-09-17T09:35:34.263Z,44.59
2022-09-17T09:38:35.986Z,42.93
2022-09-17T09:41:27.017Z,43.26
2022-09-17T09:44:17.413Z,43.58
2022-09-17T09:47:42.892Z,43.90
2022-09-17T09:51:06.208Z,44.89
2022-09-17T09:53:52.740Z,44.42
2022-09-17T09:56:28.613Z,44.37
2022-09-17T09:58:57.233Z,44.83
2022-09-17T10:01:29.067Z,44.26
2022-09-17T10:03:59.012Z,43.26
2022-09-17T10:06:31.690Z,43.79
2022-09-17T10:09:02.182Z,44.00
2022-09-17T10:11:35.252Z,43.74
2022-09-17T10:14:30.104Z,43.97
2022-09-17T10:17:26.232Z,43.65
2022-09-17T10:20:15.749Z,44.98
2022-09-17T10:22:48.816Z,44.66
2022-09-17T10:25:32.226Z,45.40
2022-09-17T10:28:03.840Z,46.68
2022-09-17T10:30:31.666Z,46.31
2022-09-17T10:33:22.147Z,46.67
2022-09-17T10:36:06.439Z,46.37
2022-09-17T10:38:47.681Z,48.34
2022-09-17T10:41:42.450Z,49.39
2022-09-17T10:44:21.297Z,51.28
2022-09-17T10:46:49.103Z,52.82
2022-09-17T10:49:44.283Z,59.38
2022-09-17T10:52:39.454Z,61.04
2022-09-17T10:55:41.371Z,64.27
2022-09-17T10:58:08.746Z,66.42
2022-09-17T11:01:00.182Z,68.78
2022-09-17T11:03:57.589Z,70.39
2022-09-17T11:06:28.346Z,72.28
2022-09-17T11:09:07.662Z,74.51
2022-09-17T11:11:48.054Z,76.84
2022-09-17T11:15:02.030Z,75.32
2022-09-17T11:17:53.880Z,75.05
2022-09-17T11:21:11.382Z,77.32
2022-09-17T11:24:20.197Z,79.62
2022-09-17T11:27:19.661Z,84.99
2022-09-17T11:30:38.359Z,89.01
2022-09-17T11:33:45.691Z,96.73
2022-09-17T11:36:23.445Z,100.00
2022-09-17T11:38:55.156Z,100.00
2022-09-17T11:41:37.562Z,100.00
2022-09-17T11:44:31.292Z,100.00
2022-09-17T11:47:15.368Z,100.00
2022-09-17T11:50:11.476Z,100.00
2022-09-17T11:52:51.142Z,100.00
2022-09-17T11:56:00.975Z,100.00
2022-09-17T11:58:44.970Z,100.00
2022-09-17T12:04:46.284Z,100.00
2022-09-17T12:07:41.615Z,100.00
2022-09-17T12:10:41.995Z,100.00
2022-09-17T12:13:48.557Z,100.00
2022-09-17T12:16:27.122Z,100.00
2022-09-17T12:19:07.811Z,100.00
2022-09-17T12:21:57.365Z,100.00
2022-09-17T12:24:31.065Z,100.00
2022-09-17T12:27:38.323Z,100.00
2022-09-17T12:30:15.172Z,100.00
2022-09-17T12:33:53.908Z,100.00
2022-09-17T12:37:13.937Z,100.00
2022-09-17T12:40:25.411Z,100.00
2022-09-17T12:43:06.368Z,98.92
2022-09-17T12:45:54.535Z,98.37
2022-09-17T12:48:59.025Z,95.87
2022-09-17T12:51:47.330Z,88.24
2022-09-17T12:55:00.628Z,91.03
2022-09-17T12:58:26.514Z,91.14
2022-09-17T13:01:14.806Z,82.95
2022-09-17T13:04:14.945Z,87.74
2022-09-17T13:07:13.727Z,81.19
2022-09-17T13:10:49.071Z,75.04
2022-09-17T13:13:48.970Z,72.30
2022-09-17T13:16:24.075Z,66.90
2022-09-17T13:19:17.215Z,65.80
2022-09-17T13:22:01.572Z,67.36
2022-09-17T13:24:31.631Z,64.90
2022-09-17T13:27:02.568Z,66.74
2022-09-17T13:29:46.260Z,64.49
2022-09-17T13:32:36.834Z,66.20
2022-09-17T13:35:10.287Z,60.17
2022-09-17T13:37:55.951Z,59.54
2022-09-17T13:40:35.111Z,59.29
2022-09-17T13:43:08.381Z,58.65
2022-09-17T13:46:04.591Z,57.77
2022-09-17T13:48:35.490Z,55.68
2022-09-17T13:51:30.829Z,57.68
2022-09-17T13:54:12.091Z,54.32
2022-09-17T13:57:02.767Z,56.07
2022-09-17T13:59:31.360Z,56.46
2022-09-17T14:02:17.235Z,56.26
2022-09-17T14:04:46.681Z,56.91
2022-09-17T14:07:28.997Z,54.68
2022-09-17T14:10:15.243Z,51.07
2022-09-17T14:12:52.275Z,53.74
2022-09-17T14:15:43.591Z,48.71
2022-09-17T14:18:29.530Z,49.71
2022-09-17T14:21:27.875Z,51.03
2022-09-17T14:24:00.942Z,53.74
2022-09-17T14:27:12.444Z,53.69
2022-09-17T14:30:02.974Z,55.93
2022-09-17T14:33:00.712Z,56.54
2022-09-17T14:35:37.062Z,57.28
2022-09-17T14:38:25.004Z,57.15
2022-09-17T14:41:03.621Z,57.33
2022-09-17T14:44:20.942Z,61.45
2022-09-17T14:47:18.255Z,60.34
2022-09-17T14:49:47.182Z,63.63
2022-09-17T14:52:40.447Z,67.16
2022-09-17T14:55:20.747Z,65.54
2022-09-17T14:58:04.761Z,67.04
2022-09-17T15:00:38.285Z,66.44
2022-09-17T15:03:06.893Z,66.22
2022-09-17T15:05:40.270Z,67.34
2022-09-17T15:08:10.456Z,68.34
2022-09-17T15:11:09.917Z,67.95
2022-09-17T15:13:51.927Z,70.68
2022-09-17T15:16:26.513Z,70.93
2022-09-17T15:19:00.066Z,71.78
2022-09-17T15:21:45.934Z,72.88
2022-09-17T15:24:34.759Z,73.55
2022-09-17T15:27:23.591Z,73.72
2022-09-17T15:30:05.426Z,75.67
2022-09-17T15:32:38.533Z,76.87
2022-09-17T15:35:21.915Z,77.03
2022-09-17T15:38:23.211Z,79.87
2022-09-17T15:40:56.536Z,81.18
2022-09-17T15:43:35.498Z,86.19
2022-09-17T15:46:30.754Z,90.52
2022-09-17T15:49:03.008Z,90.71
2022-09-17T15:51:36.230Z,91.38
2022-09-17T15:54:25.567Z,88.53
2022-09-17T15:57:05.110Z,93.22
2022-09-17T15:59:36.688Z,94.40
2022-09-17T16:02:11.238Z,99.09
2022-09-17T16:04:42.552Z,100.00
2022-09-17T16:08:01.611Z,100.00
2022-09-17T16:29:06.061Z,100.00
2022-09-17T16:31:34.771Z,100.00
2022-09-17T16:34:02.843Z,100.00
2022-09-17T16:36:34.513Z,100.00
2022-09-17T16:39:03.101Z,100.00
2022-09-17T16:41:33.174Z,100.00
2022-09-17T16:44:02.423Z,100.00
2022-09-17T16:46:31.050Z,100.00
2022-09-17T16:49:00.803Z,100.00
2022-09-17T16:51:28.485Z,100.00
2022-09-17T16:53:58.261Z,100.00
2022-09-17T16:56:25.714Z,100.00
2022-09-17T16:58:56.809Z,100.00
2022-09-17T17:01:24.375Z,100.00
2022-09-17T17:03:54.489Z,100.00
2022-09-17T17:06:22.910Z,100.00
2022-09-17T17:08:50.409Z,100.00
2022-09-17T17:11:17.918Z,100.00
2022-09-17T17:13:46.338Z,100.00
2022-09-17T17:16:16.189Z,100.00
2022-09-17T17:18:44.962Z,100.00
2022-09-17T17:21:15.254Z,100.00
2022-09-17T17:23:47.853Z,100.00
2022-09-17T17:26:21.155Z,100.00
2022-09-17T17:28:50.396Z,100.00
2022-09-17T17:31:18.195Z,100.00
2022-09-17T17:33:47.101Z,100.00
2022-09-17T17:36:14.717Z,100.00
2022-09-17T17:38:43.015Z,100.00
2022-09-17T17:41:13.615Z,100.00
2022-09-17T17:43:42.756Z,100.00
2022-09-17T17:46:13.075Z,100.00
2022-09-17T17:48:40.648Z,100.00
2022-09-17T17:51:11.002Z,100.00
2022-09-17T17:53:42.305Z,100.00
2022-09-17T17:56:15.262Z,100.00
2022-09-17T17:58:42.962Z,100.00
2022-09-17T18:01:23.167Z,100.00
2022-09-17T18:03:55.348Z,100.00
2022-09-17T18:06:22.902Z,100.00
2022-09-17T18:08:50.429Z,100.00
2022-09-17T18:11:18.559Z,100.00
2022-09-17T18:13:46.061Z,100.00
2022-09-17T18:16:15.085Z,100.00
2022-09-17T18:19:05.867Z,100.00
2022-09-17T18:21:33.488Z,100.00
2022-09-17T18:24:00.947Z,100.00
2022-09-17T18:26:29.463Z,100.00
2022-09-17T18:28:57.168Z,100.00
2022-09-17T18:31:31.444Z,100.00
2022-09-17T18:34:15.597Z,100.00
2022-09-17T18:36:50.754Z,100.00
2022-09-17T18:42:09.576Z,100.00
2022-09-17T18:44:37.054Z,100.00
2022-09-17T18:47:07.782Z,100.00
2022-09-17T18:49:35.271Z,100.00
2022-09-17T18:52:02.970Z,100.00
2022-09-17T18:54:30.422Z,100.00
2022-09-17T18:56:57.893Z,100.00
2022-09-17T18:59:25.565Z,100.00
2022-09-17T19:01:56.498Z,100.00
2022-09-17T19:04:23.987Z,100.00
2022-09-17T19:06:51.742Z,100.00
2022-09-17T19:09:22.282Z,100.00
2022-09-17T19:11:51.171Z,100.00
2022-09-17T19:14:18.631Z,100.00
2022-09-17T19:16:49.104Z,100.00
2022-09-17T19:19:19.968Z,100.00
2022-09-17T19:21:50.698Z,100.00
2022-09-17T19:24:18.713Z,100.00
2022-09-17T19:26:50.840Z,100.00
2022-09-17T19:29:18.890Z,100.00
2022-09-17T19:31:47.051Z,100.00
2022-09-17T19:34:14.614Z,100.00
2022-09-17T19:36:42.767Z,100.00
2022-09-17T19:39:10.294Z,100.00
2022-09-17T19:41:38.475Z,100.00
2022-09-17T19:44:06.117Z,100.00
2022-09-17T19:46:33.725Z,100.00
2022-09-17T19:49:01.554Z,100.00
2022-09-17T19:51:32.407Z,100.00
2022-09-17T19:54:00.237Z,100.00
2022-09-17T19:56:28.670Z,100.00
2022-09-17T19:58:57.426Z,100.00
2022-09-17T20:01:25.090Z,100.00
2022-09-17T20:03:53.631Z,100.00
2022-09-17T20:06:23.987Z,100.00
2022-09-17T20:08:55.903Z,100.00
2022-09-17T20:11:25.963Z,100.00
2022-09-17T20:14:06.659Z,100.00
2022-09-17T20:16:37.719Z,100.00
2022-09-17T20:19:07.135Z,100.00
2022-09-17T20:21:35.004Z,100.00
2022-09-17T20:24:02.788Z,100.00
2022-09-17T20:26:30.211Z,100.00
2022-09-17T20:28:57.848Z,100.00
2022-09-17T20:31:29.977Z,100.00
2022-09-17T20:34:00.609Z,100.00
2022-09-17T20:36:31.706Z,100.00
2022-09-17T20:39:21.940Z,100.00
2022-09-17T20:41:47.200Z,100.00
2022-09-17T20:44:14.779Z,100.00
2022-09-17T20:46:42.362Z,100.00
2022-09-17T20:49:10.028Z,100.00
2022-09-17T20:51:37.552Z,100.00
2022-09-17T20:54:05.931Z,100.00
2022-09-17T20:56:35.618Z,100.00
2022-09-17T20:59:14.366Z,100.00
2022-09-17T21:01:45.421Z,100.00
2022-09-17T21:04:17.060Z,100.00
2022-09-17T21:06:45.680Z,100.00
2022-09-17T21:09:17.880Z,100.00
2022-09-17T21:11:49.319Z,100.00
2022-09-17T21:14:18.295Z,100.00
2022-09-17T21:16:48.774Z,100.00
2022-09-17T21:19:19.982Z,100.00
2022-09-17T21:21:51.689Z,100.00
2022-09-17T21:24:20.387Z,100.00
2022-09-17T21:26:48.237Z,100.00
2022-09-17T21:29:18.459Z,100.00
2022-09-17T21:31:48.422Z,100.00
2022-09-17T21:34:16.371Z,100.00
2022-09-17T21:36:44.654Z,100.00
2022-09-17T21:39:20.263Z,100.00
2022-09-17T21:41:50.487Z,100.00
2022-09-17T21:44:18.232Z,100.00
2022-09-17T21:46:45.803Z,100.00
2022-09-17T21:49:13.579Z,100.00
2022-09-17T21:51:43.540Z,100.00
2022-09-17T21:54:15.945Z,100.00
2022-09-17T21:56:45.530Z,100.00
2022-09-17T21:59:16.123Z,100.00
2022-09-17T22:01:50.563Z,100.00
2022-09-17T22:04:22.055Z,100.00
2022-09-17T22:06:50.686Z,100.00
2022-09-17T22:09:22.244Z,100.00
2022-09-17T22:11:52.434Z,100.00
2022-09-17T22:14:23.349Z,100.00
2022-09-17T22:16:57.027Z,100.00
2022-09-17T22:19:26.667Z,100.00
2022-09-17T22:21:56.483Z,100.00
2022-09-17T22:24:25.457Z,100.00
2022-09-17T22:26:57.742Z,100.00
2022-09-17T22:29:31.582Z,100.00
2022-09-17T22:31:59.298Z,100.00
2022-09-17T22:34:27.130Z,100.00
2022-09-17T22:36:54.636Z,100.00
2022-09-17T22:39:22.643Z,100.00
2022-09-17T22:41:50.629Z,100.00
2022-09-17T22:44:20.399Z,100.00
2022-09-17T22:46:52.451Z,100.00
2022-09-17T22:49:20.331Z,100.00
2022-09-17T22:51:48.177Z,100.00
2022-09-17T22:54:18.283Z,100.00
2022-09-17T22:56:48.233Z,100.00
2022-09-17T22:59:15.927Z,100.00
2022-09-17T23:01:43.518Z,100.00
2022-09-17T23:04:11.345Z,100.00
2022-09-17T23:06:42.138Z,100.00
2022-09-17T23:09:11.495Z,100.00
2022-09-17T23:11:40.064Z,100.00
2022-09-17T23:14:12.914Z,100.00
2022-09-17T23:16:46.930Z,100.00
2022-09-17T23:19:17.963Z,100.00
2022-09-17T23:21:45.993Z,100.00
2022-09-17T23:24:20.300Z,100.00
2022-09-17T23:26:48.582Z,100.00
2022-09-17T23:29:16.327Z,100.00
2022-09-17T23:31:43.891Z,100.00
2022-09-17T23:34:11.427Z,100.00
2022-09-17T23:36:40.195Z,100.00
2022-09-17T23:39:10.301Z,100.00
2022-09-17T23:41:43.150Z,100.00
2022-09-17T23:44:15.430Z,100.00
2022-09-17T23:46:45.664Z,100.00
2022-09-17T23:49:15.825Z,100.00
2022-09-17T23:51:46.298Z,100.00
2022-09-17T23:54:14.112Z,100.00
2022-09-17T23:56:41.742Z,100.00
2022-09-17T23:59:11.116Z,100.00
